Terminal Aerodrome Forecast
Issued by NWS

Home | Current Version | Previous Version | Text Only | Print | Product List | Glossary On
Versions: 1 2 3 4 5 6 7 8 9 10 11 12 13 14 15 16 17 18 19 20 21 22 23
000
FTUS46 KSEW 231402 AAA
TAFBFI
TAF AMD
KBFI 231402Z 2314/2412 19010KT P6SM SCT015 SCT030 BKN045
      TEMPO 2314/2317 5SM -RA BR BKN015 BKN030 OVC045
     FM231700 20010G20KT P6SM -RA BKN022 OVC040
     FM232100 21012G25KT P6SM VCSH BKN035 BKN045
     FM240600 21010KT P6SM BKN025 BKN040=

USA.gov is the U.S. government's official web portal to all federal, state and local government web resources and services.